sensor_id;sensor_type;location;lat;lon;timestamp;temperature;humidity
60234;DHT22;49514;43.538;-5.708;2023-04-09T00:02:02;13.70;99.90
60234;DHT22;49514;43.538;-5.708;2023-04-09T00:04:28;13.70;99.90
60234;DHT22;49514;43.538;-5.708;2023-04-09T00:06:55;13.60;99.90
60234;DHT22;49514;43.538;-5.708;2023-04-09T00:09:22;13.60;99.90
60234;DHT22;49514;43.538;-5.708;2023-04-09T00:11:48;13.50;99.90
60234;DHT22;49514;43.538;-5.708;2023-04-09T00:14:15;13.50;99.90
60234;DHT22;49514;43.538;-5.708;2023-04-09T00:16:41;13.40;99.90
60234;DHT22;49514;43.538;-5.708;2023-04-09T00:19:08;13.30;99.90
60234;DHT22;49514;43.538;-5.708;2023-04-09T00:21:34;13.40;99.90
60234;DHT22;49514;43.538;-5.708;2023-04-09T00:24:02;13.30;99.90
60234;DHT22;49514;43.538;-5.708;2023-04-09T00:26:30;13.30;99.90
60234;DHT22;49514;43.538;-5.708;2023-04-09T00:28:56;13.30;99.90
60234;DHT22;49514;43.538;-5.708;2023-04-09T00:31:41;13.30;99.90
60234;DHT22;49514;43.538;-5.708;2023-04-09T00:34:08;13.20;99.90
60234;DHT22;49514;43.538;-5.708;2023-04-09T00:36:36;13.20;99.90
60234;DHT22;49514;43.538;-5.708;2023-04-09T00:39:03;13.10;99.90
60234;DHT22;49514;43.538;-5.708;2023-04-09T00:41:30;13.10;99.90
60234;DHT22;49514;43.538;-5.708;2023-04-09T00:43:57;13.10;99.90
60234;DHT22;49514;43.538;-5.708;2023-04-09T00:46:24;13.10;99.90
60234;DHT22;49514;43.538;-5.708;2023-04-09T00:48:51;13.00;99.90
60234;DHT22;49514;43.538;-5.708;2023-04-09T00:51:18;13.00;99.90
60234;DHT22;49514;43.538;-5.708;2023-04-09T00:53:45;13.00;99.90
60234;DHT22;49514;43.538;-5.708;2023-04-09T00:56:12;12.90;99.90
60234;DHT22;49514;43.538;-5.708;2023-04-09T00:58:40;12.90;99.90
60234;DHT22;49514;43.538;-5.708;2023-04-09T01:01:09;12.90;99.90
60234;DHT22;49514;43.538;-5.708;2023-04-09T01:03:36;12.80;99.90
60234;DHT22;49514;43.538;-5.708;2023-04-09T01:08:50;12.70;99.90
60234;DHT22;49514;43.538;-5.708;2023-04-09T01:11:34;12.60;99.90
60234;DHT22;49514;43.538;-5.708;2023-04-09T01:19:30;12.60;99.90
60234;DHT22;49514;43.538;-5.708;2023-04-09T01:22:00;12.50;99.90
60234;DHT22;49514;43.538;-5.708;2023-04-09T01:24:39;12.40;99.90
60234;DHT22;49514;43.538;-5.708;2023-04-09T01:27:09;12.40;99.90
60234;DHT22;49514;43.538;-5.708;2023-04-09T01:29:50;12.30;99.90
60234;DHT22;49514;43.538;-5.708;2023-04-09T01:32:18;12.30;99.90
60234;DHT22;49514;43.538;-5.708;2023-04-09T01:34:46;12.30;99.90
60234;DHT22;49514;43.538;-5.708;2023-04-09T01:37:13;12.20;99.90
60234;DHT22;49514;43.538;-5.708;2023-04-09T01:39:40;12.20;99.90
60234;DHT22;49514;43.538;-5.708;2023-04-09T01:42:08;12.20;99.90
60234;DHT22;49514;43.538;-5.708;2023-04-09T01:44:37;12.20;99.90
60234;DHT22;49514;43.538;-5.708;2023-04-09T01:47:04;12.20;99.90
60234;DHT22;49514;43.538;-5.708;2023-04-09T01:49:30;12.10;99.90
60234;DHT22;49514;43.538;-5.708;2023-04-09T01:51:57;12.10;99.90
60234;DHT22;49514;43.538;-5.708;2023-04-09T01:54:24;12.20;99.90
60234;DHT22;49514;43.538;-5.708;2023-04-09T01:56:50;12.20;99.90
60234;DHT22;49514;43.538;-5.708;2023-04-09T01:59:16;12.20;99.90
60234;DHT22;49514;43.538;-5.708;2023-04-09T02:01:44;12.20;99.90
60234;DHT22;49514;43.538;-5.708;2023-04-09T02:04:22;12.20;99.90
60234;DHT22;49514;43.538;-5.708;2023-04-09T02:06:56;12.20;99.90
60234;DHT22;49514;43.538;-5.708;2023-04-09T02:09:25;12.20;99.90
60234;DHT22;49514;43.538;-5.708;2023-04-09T02:11:57;12.20;99.90
60234;DHT22;49514;43.538;-5.708;2023-04-09T02:14:25;12.20;99.90
60234;DHT22;49514;43.538;-5.708;2023-04-09T02:16:52;12.20;99.90
60234;DHT22;49514;43.538;-5.708;2023-04-09T02:19:19;12.20;99.90
60234;DHT22;49514;43.538;-5.708;2023-04-09T02:21:46;12.20;99.90
60234;DHT22;49514;43.538;-5.708;2023-04-09T02:24:13;12.30;99.90
60234;DHT22;49514;43.538;-5.708;2023-04-09T02:26:39;12.30;99.90
60234;DHT22;49514;43.538;-5.708;2023-04-09T02:29:06;12.40;99.90
60234;DHT22;49514;43.538;-5.708;2023-04-09T02:31:33;12.40;99.90
60234;DHT22;49514;43.538;-5.708;2023-04-09T02:33:59;12.40;99.90
60234;DHT22;49514;43.538;-5.708;2023-04-09T02:36:26;12.40;99.90
60234;DHT22;49514;43.538;-5.708;2023-04-09T02:38:53;12.50;99.90
60234;DHT22;49514;43.538;-5.708;2023-04-09T02:41:20;12.50;99.90
60234;DHT22;49514;43.538;-5.708;2023-04-09T02:43:47;12.50;99.90
60234;DHT22;49514;43.538;-5.708;2023-04-09T02:46:13;12.40;99.90
60234;DHT22;49514;43.538;-5.708;2023-04-09T02:48:40;12.50;99.90
60234;DHT22;49514;43.538;-5.708;2023-04-09T02:51:06;12.50;99.90
60234;DHT22;49514;43.538;-5.708;2023-04-09T02:53:33;12.50;99.90
60234;DHT22;49514;43.538;-5.708;2023-04-09T02:56:00;12.60;99.90
60234;DHT22;49514;43.538;-5.708;2023-04-09T02:58:26;12.60;99.90
60234;DHT22;49514;43.538;-5.708;2023-04-09T03:00:53;12.70;99.90
60234;DHT22;49514;43.538;-5.708;2023-04-09T03:03:21;12.60;99.90
60234;DHT22;49514;43.538;-5.708;2023-04-09T03:05:47;12.70;99.90
60234;DHT22;49514;43.538;-5.708;2023-04-09T03:08:14;12.70;99.90
60234;DHT22;49514;43.538;-5.708;2023-04-09T03:10:41;12.70;99.90
60234;DHT22;49514;43.538;-5.708;2023-04-09T03:13:07;12.70;99.90
60234;DHT22;49514;43.538;-5.708;2023-04-09T03:15:34;12.60;99.90
60234;DHT22;49514;43.538;-5.708;2023-04-09T03:18:01;12.60;99.90
60234;DHT22;49514;43.538;-5.708;2023-04-09T03:20:27;12.60;99.90
60234;DHT22;49514;43.538;-5.708;2023-04-09T03:22:54;12.60;99.90
60234;DHT22;49514;43.538;-5.708;2023-04-09T03:25:35;12.70;99.90
60234;DHT22;49514;43.538;-5.708;2023-04-09T03:28:10;12.60;99.90
60234;DHT22;49514;43.538;-5.708;2023-04-09T03:30:41;12.70;99.90
60234;DHT22;49514;43.538;-5.708;2023-04-09T03:33:08;12.60;99.90
60234;DHT22;49514;43.538;-5.708;2023-04-09T03:35:44;12.60;99.90
60234;DHT22;49514;43.538;-5.708;2023-04-09T03:38:12;12.60;99.90
60234;DHT22;49514;43.538;-5.708;2023-04-09T03:40:39;12.60;99.90
60234;DHT22;49514;43.538;-5.708;2023-04-09T03:43:07;12.60;99.90
60234;DHT22;49514;43.538;-5.708;2023-04-09T03:45:37;12.70;99.90
60234;DHT22;49514;43.538;-5.708;2023-04-09T03:48:16;12.70;99.90
60234;DHT22;49514;43.538;-5.708;2023-04-09T03:50:43;12.70;99.90
60234;DHT22;49514;43.538;-5.708;2023-04-09T03:53:13;12.70;99.90
60234;DHT22;49514;43.538;-5.708;2023-04-09T03:55:40;12.70;99.90
60234;DHT22;49514;43.538;-5.708;2023-04-09T03:58:15;12.70;99.90
60234;DHT22;49514;43.538;-5.708;2023-04-09T04:00:42;12.80;99.90
60234;DHT22;49514;43.538;-5.708;2023-04-09T04:03:34;12.80;99.90
60234;DHT22;49514;43.538;-5.708;2023-04-09T04:06:08;12.70;99.90
60234;DHT22;49514;43.538;-5.708;2023-04-09T04:08:55;12.70;99.90
60234;DHT22;49514;43.538;-5.708;2023-04-09T04:11:32;12.70;99.90
60234;DHT22;49514;43.538;-5.708;2023-04-09T04:13:58;12.60;99.90
60234;DHT22;49514;43.538;-5.708;2023-04-09T04:16:26;12.60;99.90
60234;DHT22;49514;43.538;-5.708;2023-04-09T04:18:54;12.60;99.90
60234;DHT22;49514;43.538;-5.708;2023-04-09T04:21:21;12.50;99.90
60234;DHT22;49514;43.538;-5.708;2023-04-09T04:23:56;12.50;99.90
60234;DHT22;49514;43.538;-5.708;2023-04-09T04:26:26;12.40;99.90
60234;DHT22;49514;43.538;-5.708;2023-04-09T04:28:53;12.50;99.90
60234;DHT22;49514;43.538;-5.708;2023-04-09T04:31:44;12.50;99.90
60234;DHT22;49514;43.538;-5.708;2023-04-09T04:34:11;12.40;99.90
60234;DHT22;49514;43.538;-5.708;2023-04-09T04:36:40;12.40;99.90
60234;DHT22;49514;43.538;-5.708;2023-04-09T04:39:07;12.40;99.90
60234;DHT22;49514;43.538;-5.708;2023-04-09T04:41:46;12.30;99.90
60234;DHT22;49514;43.538;-5.708;2023-04-09T04:44:18;12.30;99.90
60234;DHT22;49514;43.538;-5.708;2023-04-09T04:46:46;12.40;99.90
60234;DHT22;49514;43.538;-5.708;2023-04-09T04:49:13;12.40;99.90
60234;DHT22;49514;43.538;-5.708;2023-04-09T04:51:45;12.40;99.90
60234;DHT22;49514;43.538;-5.708;2023-04-09T04:54:14;12.40;99.90
60234;DHT22;49514;43.538;-5.708;2023-04-09T04:56:47;12.40;99.90
60234;DHT22;49514;43.538;-5.708;2023-04-09T04:59:38;12.40;99.90
60234;DHT22;49514;43.538;-5.708;2023-04-09T05:02:07;12.40;99.90
60234;DHT22;49514;43.538;-5.708;2023-04-09T05:05:12;12.50;99.90
60234;DHT22;49514;43.538;-5.708;2023-04-09T05:07:45;12.50;99.90
60234;DHT22;49514;43.538;-5.708;2023-04-09T05:10:11;12.50;99.90
60234;DHT22;49514;43.538;-5.708;2023-04-09T05:12:41;12.50;99.90
60234;DHT22;49514;43.538;-5.708;2023-04-09T05:15:09;12.50;99.90
60234;DHT22;49514;43.538;-5.708;2023-04-09T05:17:37;12.60;99.90
60234;DHT22;49514;43.538;-5.708;2023-04-09T05:20:06;12.60;99.90
60234;DHT22;49514;43.538;-5.708;2023-04-09T05:22:43;12.70;99.90
60234;DHT22;49514;43.538;-5.708;2023-04-09T05:25:09;12.70;99.90
60234;DHT22;49514;43.538;-5.708;2023-04-09T05:27:38;12.70;99.90
60234;DHT22;49514;43.538;-5.708;2023-04-09T05:30:06;12.70;99.90
60234;DHT22;49514;43.538;-5.708;2023-04-09T05:32:33;12.70;99.90
60234;DHT22;49514;43.538;-5.708;2023-04-09T05:35:00;12.70;99.90
60234;DHT22;49514;43.538;-5.708;2023-04-09T05:37:28;12.80;99.90
60234;DHT22;49514;43.538;-5.708;2023-04-09T05:39:55;12.80;99.90
60234;DHT22;49514;43.538;-5.708;2023-04-09T05:42:22;12.80;99.90
60234;DHT22;49514;43.538;-5.708;2023-04-09T05:45:00;12.80;99.90
60234;DHT22;49514;43.538;-5.708;2023-04-09T05:47:27;12.80;99.90
60234;DHT22;49514;43.538;-5.708;2023-04-09T05:50:09;12.80;99.90
60234;DHT22;49514;43.538;-5.708;2023-04-09T05:52:37;12.80;99.90
60234;DHT22;49514;43.538;-5.708;2023-04-09T05:55:04;12.70;99.90
60234;DHT22;49514;43.538;-5.708;2023-04-09T05:57:58;12.70;99.90
60234;DHT22;49514;43.538;-5.708;2023-04-09T06:00:26;12.60;99.90
60234;DHT22;49514;43.538;-5.708;2023-04-09T06:02:52;12.60;99.90
60234;DHT22;49514;43.538;-5.708;2023-04-09T06:05:19;12.60;99.90
60234;DHT22;49514;43.538;-5.708;2023-04-09T06:07:47;12.60;99.90
60234;DHT22;49514;43.538;-5.708;2023-04-09T06:10:14;12.70;99.90
60234;DHT22;49514;43.538;-5.708;2023-04-09T06:12:41;12.70;99.90
60234;DHT22;49514;43.538;-5.708;2023-04-09T06:15:09;12.70;99.90
60234;DHT22;49514;43.538;-5.708;2023-04-09T06:17:35;12.70;99.90
60234;DHT22;49514;43.538;-5.708;2023-04-09T06:20:03;12.80;99.90
60234;DHT22;49514;43.538;-5.708;2023-04-09T06:22:29;12.80;99.90
60234;DHT22;49514;43.538;-5.708;2023-04-09T06:24:56;12.80;99.90
60234;DHT22;49514;43.538;-5.708;2023-04-09T06:27:23;12.90;99.90
60234;DHT22;49514;43.538;-5.708;2023-04-09T06:29:50;13.00;99.90
60234;DHT22;49514;43.538;-5.708;2023-04-09T06:32:16;13.10;99.90
60234;DHT22;49514;43.538;-5.708;2023-04-09T06:34:43;13.20;99.90
60234;DHT22;49514;43.538;-5.708;2023-04-09T06:37:10;13.30;99.70
60234;DHT22;49514;43.538;-5.708;2023-04-09T06:39:36;13.30;99.60
60234;DHT22;49514;43.538;-5.708;2023-04-09T06:42:03;13.30;99.90
60234;DHT22;49514;43.538;-5.708;2023-04-09T06:44:52;13.30;99.90
60234;DHT22;49514;43.538;-5.708;2023-04-09T06:47:19;13.40;99.90
60234;DHT22;49514;43.538;-5.708;2023-04-09T06:49:46;13.40;99.40
60234;DHT22;49514;43.538;-5.708;2023-04-09T06:52:12;13.50;99.20
60234;DHT22;49514;43.538;-5.708;2023-04-09T06:54:39;13.50;99.60
60234;DHT22;49514;43.538;-5.708;2023-04-09T06:57:06;13.60;99.40
60234;DHT22;49514;43.538;-5.708;2023-04-09T06:59:33;13.70;99.40
60234;DHT22;49514;43.538;-5.708;2023-04-09T07:01:59;13.70;99.80
60234;DHT22;49514;43.538;-5.708;2023-04-09T07:04:26;13.70;99.90
60234;DHT22;49514;43.538;-5.708;2023-04-09T07:06:53;13.70;99.90
60234;DHT22;49514;43.538;-5.708;2023-04-09T07:09:22;13.70;99.90
60234;DHT22;49514;43.538;-5.708;2023-04-09T07:11:48;13.70;99.90
60234;DHT22;49514;43.538;-5.708;2023-04-09T07:14:15;13.70;99.90
60234;DHT22;49514;43.538;-5.708;2023-04-09T07:16:42;13.70;99.90
60234;DHT22;49514;43.538;-5.708;2023-04-09T07:19:11;13.70;99.90
60234;DHT22;49514;43.538;-5.708;2023-04-09T07:21:38;13.80;99.90
60234;DHT22;49514;43.538;-5.708;2023-04-09T07:24:05;13.90;99.90
60234;DHT22;49514;43.538;-5.708;2023-04-09T07:26:32;13.90;99.90
60234;DHT22;49514;43.538;-5.708;2023-04-09T07:28:59;14.00;99.90
60234;DHT22;49514;43.538;-5.708;2023-04-09T07:31:26;14.10;99.90
60234;DHT22;49514;43.538;-5.708;2023-04-09T07:33:52;14.20;99.90
60234;DHT22;49514;43.538;-5.708;2023-04-09T07:36:19;14.10;99.90
60234;DHT22;49514;43.538;-5.708;2023-04-09T07:38:46;14.20;99.90
60234;DHT22;49514;43.538;-5.708;2023-04-09T07:41:12;14.20;99.90
60234;DHT22;49514;43.538;-5.708;2023-04-09T07:43:39;14.30;99.90
60234;DHT22;49514;43.538;-5.708;2023-04-09T07:46:06;14.30;99.90
60234;DHT22;49514;43.538;-5.708;2023-04-09T07:48:33;14.30;99.90
60234;DHT22;49514;43.538;-5.708;2023-04-09T07:51:00;14.40;99.90
60234;DHT22;49514;43.538;-5.708;2023-04-09T07:53:27;14.40;99.90
60234;DHT22;49514;43.538;-5.708;2023-04-09T07:55:53;14.40;99.90
60234;DHT22;49514;43.538;-5.708;2023-04-09T07:58:20;14.50;99.90
60234;DHT22;49514;43.538;-5.708;2023-04-09T08:00:47;14.50;99.90
60234;DHT22;49514;43.538;-5.708;2023-04-09T08:03:14;14.50;99.90
60234;DHT22;49514;43.538;-5.708;2023-04-09T08:05:40;14.60;99.90
60234;DHT22;49514;43.538;-5.708;2023-04-09T08:08:07;14.60;99.90
60234;DHT22;49514;43.538;-5.708;2023-04-09T08:10:34;14.60;99.90
60234;DHT22;49514;43.538;-5.708;2023-04-09T08:13:01;14.70;99.90
60234;DHT22;49514;43.538;-5.708;2023-04-09T08:15:27;14.80;99.90
60234;DHT22;49514;43.538;-5.708;2023-04-09T08:17:54;14.80;99.90
60234;DHT22;49514;43.538;-5.708;2023-04-09T08:20:21;14.90;99.90
60234;DHT22;49514;43.538;-5.708;2023-04-09T08:22:47;15.00;99.90
60234;DHT22;49514;43.538;-5.708;2023-04-09T08:25:14;15.00;99.90
60234;DHT22;49514;43.538;-5.708;2023-04-09T08:27:41;15.10;99.90
60234;DHT22;49514;43.538;-5.708;2023-04-09T08:30:08;15.20;99.90
60234;DHT22;49514;43.538;-5.708;2023-04-09T08:32:35;15.30;99.90
60234;DHT22;49514;43.538;-5.708;2023-04-09T08:35:02;15.30;99.90
60234;DHT22;49514;43.538;-5.708;2023-04-09T08:37:29;15.40;99.90
60234;DHT22;49514;43.538;-5.708;2023-04-09T08:39:55;15.50;99.90
60234;DHT22;49514;43.538;-5.708;2023-04-09T08:42:24;15.50;99.90
60234;DHT22;49514;43.538;-5.708;2023-04-09T08:44:51;15.60;99.90
60234;DHT22;49514;43.538;-5.708;2023-04-09T08:47:19;15.70;99.90
60234;DHT22;49514;43.538;-5.708;2023-04-09T08:49:46;15.80;99.90
60234;DHT22;49514;43.538;-5.708;2023-04-09T08:52:14;15.90;99.90
60234;DHT22;49514;43.538;-5.708;2023-04-09T08:54:43;15.90;99.90
60234;DHT22;49514;43.538;-5.708;2023-04-09T08:57:09;16.00;99.90
60234;DHT22;49514;43.538;-5.708;2023-04-09T08:59:36;16.10;99.90
60234;DHT22;49514;43.538;-5.708;2023-04-09T09:02:07;16.20;99.90
60234;DHT22;49514;43.538;-5.708;2023-04-09T09:04:47;16.30;99.90
60234;DHT22;49514;43.538;-5.708;2023-04-09T09:07:15;16.30;99.90
60234;DHT22;49514;43.538;-5.708;2023-04-09T09:09:55;16.30;99.90
60234;DHT22;49514;43.538;-5.708;2023-04-09T09:12:37;16.40;99.90
60234;DHT22;49514;43.538;-5.708;2023-04-09T09:15:23;16.40;99.90
60234;DHT22;49514;43.538;-5.708;2023-04-09T09:17:55;16.40;99.90
60234;DHT22;49514;43.538;-5.708;2023-04-09T09:20:24;16.40;99.90
60234;DHT22;49514;43.538;-5.708;2023-04-09T09:22:54;16.50;99.90
60234;DHT22;49514;43.538;-5.708;2023-04-09T09:25:21;16.50;99.90
60234;DHT22;49514;43.538;-5.708;2023-04-09T09:27:50;16.60;99.90
60234;DHT22;49514;43.538;-5.708;2023-04-09T09:30:25;16.60;99.90
60234;DHT22;49514;43.538;-5.708;2023-04-09T09:33:06;16.60;99.90
60234;DHT22;49514;43.538;-5.708;2023-04-09T09:35:54;16.60;99.90
60234;DHT22;49514;43.538;-5.708;2023-04-09T09:38:22;16.60;99.90
60234;DHT22;49514;43.538;-5.708;2023-04-09T09:40:49;16.60;99.90
60234;DHT22;49514;43.538;-5.708;2023-04-09T09:43:17;16.60;99.90
60234;DHT22;49514;43.538;-5.708;2023-04-09T09:45:46;16.60;99.90
60234;DHT22;49514;43.538;-5.708;2023-04-09T09:48:13;16.60;99.90
60234;DHT22;49514;43.538;-5.708;2023-04-09T09:50:41;16.70;99.90
60234;DHT22;49514;43.538;-5.708;2023-04-09T09:53:10;16.70;99.90
60234;DHT22;49514;43.538;-5.708;2023-04-09T09:55:42;16.80;99.90
60234;DHT22;49514;43.538;-5.708;2023-04-09T09:58:21;16.80;99.90
60234;DHT22;49514;43.538;-5.708;2023-04-09T10:00:49;16.80;99.90
60234;DHT22;49514;43.538;-5.708;2023-04-09T10:03:37;16.80;99.90
60234;DHT22;49514;43.538;-5.708;2023-04-09T10:06:08;16.80;99.90
60234;DHT22;49514;43.538;-5.708;2023-04-09T10:08:36;16.80;99.90
60234;DHT22;49514;43.538;-5.708;2023-04-09T10:11:04;16.90;99.90
60234;DHT22;49514;43.538;-5.708;2023-04-09T10:13:38;16.90;99.90
60234;DHT22;49514;43.538;-5.708;2023-04-09T10:16:06;17.00;99.90
60234;DHT22;49514;43.538;-5.708;2023-04-09T10:18:34;17.00;99.90
60234;DHT22;49514;43.538;-5.708;2023-04-09T10:21:11;17.10;99.90
60234;DHT22;49514;43.538;-5.708;2023-04-09T10:23:41;17.10;99.90
60234;DHT22;49514;43.538;-5.708;2023-04-09T10:26:10;17.20;99.90
60234;DHT22;49514;43.538;-5.708;2023-04-09T10:28:37;17.30;99.90
60234;DHT22;49514;43.538;-5.708;2023-04-09T10:31:05;17.60;99.90
60234;DHT22;49514;43.538;-5.708;2023-04-09T10:33:33;17.70;99.90
60234;DHT22;49514;43.538;-5.708;2023-04-09T10:36:10;17.70;99.90
60234;DHT22;49514;43.538;-5.708;2023-04-09T10:38:39;17.90;99.90
60234;DHT22;49514;43.538;-5.708;2023-04-09T10:41:13;17.90;99.90
60234;DHT22;49514;43.538;-5.708;2023-04-09T10:43:40;18.10;99.90
60234;DHT22;49514;43.538;-5.708;2023-04-09T10:46:31;18.10;99.90
60234;DHT22;49514;43.538;-5.708;2023-04-09T10:49:09;18.10;99.90
60234;DHT22;49514;43.538;-5.708;2023-04-09T10:51:37;18.10;99.90
60234;DHT22;49514;43.538;-5.708;2023-04-09T10:59:57;18.50;99.90
60234;DHT22;49514;43.538;-5.708;2023-04-09T11:05:32;18.60;99.90
60234;DHT22;49514;43.538;-5.708;2023-04-09T11:08:03;18.70;99.90
60234;DHT22;49514;43.538;-5.708;2023-04-09T11:10:31;18.70;99.90
60234;DHT22;49514;43.538;-5.708;2023-04-09T11:12:59;18.70;99.90
60234;DHT22;49514;43.538;-5.708;2023-04-09T11:15:26;18.70;99.90
60234;DHT22;49514;43.538;-5.708;2023-04-09T11:17:53;18.70;99.90
60234;DHT22;49514;43.538;-5.708;2023-04-09T11:20:22;18.60;99.90
60234;DHT22;49514;43.538;-5.708;2023-04-09T11:22:53;18.60;99.90
60234;DHT22;49514;43.538;-5.708;2023-04-09T11:25:25;18.60;99.90
60234;DHT22;49514;43.538;-5.708;2023-04-09T11:27:52;18.60;99.90
60234;DHT22;49514;43.538;-5.708;2023-04-09T11:30:19;18.60;99.90
60234;DHT22;49514;43.538;-5.708;2023-04-09T11:32:46;18.60;99.90
60234;DHT22;49514;43.538;-5.708;2023-04-09T11:35:18;18.60;99.90
60234;DHT22;49514;43.538;-5.708;2023-04-09T11:37:45;18.90;99.90
60234;DHT22;49514;43.538;-5.708;2023-04-09T11:40:16;19.10;99.90
60234;DHT22;49514;43.538;-5.708;2023-04-09T11:42:43;19.10;99.90
60234;DHT22;49514;43.538;-5.708;2023-04-09T11:45:11;19.00;99.90
60234;DHT22;49514;43.538;-5.708;2023-04-09T11:47:41;19.20;99.90
60234;DHT22;49514;43.538;-5.708;2023-04-09T11:50:09;19.20;99.90
60234;DHT22;49514;43.538;-5.708;2023-04-09T11:52:37;19.30;99.90
60234;DHT22;49514;43.538;-5.708;2023-04-09T11:55:05;19.50;99.90
60234;DHT22;49514;43.538;-5.708;2023-04-09T12:00:14;19.70;99.90
60234;DHT22;49514;43.538;-5.708;2023-04-09T12:02:44;19.90;99.90
60234;DHT22;49514;43.538;-5.708;2023-04-09T12:05:43;20.00;99.90
60234;DHT22;49514;43.538;-5.708;2023-04-09T12:08:10;20.20;99.90
60234;DHT22;49514;43.538;-5.708;2023-04-09T12:10:37;20.20;99.90
60234;DHT22;49514;43.538;-5.708;2023-04-09T12:13:08;20.40;99.90
60234;DHT22;49514;43.538;-5.708;2023-04-09T12:15:37;20.50;99.90
60234;DHT22;49514;43.538;-5.708;2023-04-09T12:18:11;20.70;99.90
60234;DHT22;49514;43.538;-5.708;2023-04-09T12:20:40;20.70;99.90
60234;DHT22;49514;43.538;-5.708;2023-04-09T12:23:11;20.90;99.90
60234;DHT22;49514;43.538;-5.708;2023-04-09T12:25:39;21.10;99.90
60234;DHT22;49514;43.538;-5.708;2023-04-09T12:28:07;21.30;99.90
60234;DHT22;49514;43.538;-5.708;2023-04-09T12:30:35;21.50;99.90
60234;DHT22;49514;43.538;-5.708;2023-04-09T12:33:02;21.70;99.90
60234;DHT22;49514;43.538;-5.708;2023-04-09T12:35:29;21.80;99.90
60234;DHT22;49514;43.538;-5.708;2023-04-09T12:37:56;22.20;99.90
60234;DHT22;49514;43.538;-5.708;2023-04-09T12:40:24;22.50;99.90
60234;DHT22;49514;43.538;-5.708;2023-04-09T12:42:51;22.70;99.90
60234;DHT22;49514;43.538;-5.708;2023-04-09T12:45:19;23.40;99.90
60234;DHT22;49514;43.538;-5.708;2023-04-09T12:47:46;23.60;99.90
60234;DHT22;49514;43.538;-5.708;2023-04-09T12:50:13;24.10;99.90
60234;DHT22;49514;43.538;-5.708;2023-04-09T12:52:42;24.50;99.80
60234;DHT22;49514;43.538;-5.708;2023-04-09T12:55:10;24.80;98.90
60234;DHT22;49514;43.538;-5.708;2023-04-09T12:57:38;26.20;97.10
60234;DHT22;49514;43.538;-5.708;2023-04-09T13:00:06;27.60;94.70
60234;DHT22;49514;43.538;-5.708;2023-04-09T13:02:33;28.30;92.80
60234;DHT22;49514;43.538;-5.708;2023-04-09T13:05:00;29.40;89.30
60234;DHT22;49514;43.538;-5.708;2023-04-09T13:07:26;30.40;88.50
60234;DHT22;49514;43.538;-5.708;2023-04-09T13:09:55;32.40;83.90
60234;DHT22;49514;43.538;-5.708;2023-04-09T13:12:23;33.80;77.90
60234;DHT22;49514;43.538;-5.708;2023-04-09T13:14:53;34.70;73.30
60234;DHT22;49514;43.538;-5.708;2023-04-09T13:17:19;35.50;70.70
60234;DHT22;49514;43.538;-5.708;2023-04-09T13:19:46;36.70;68.80
60234;DHT22;49514;43.538;-5.708;2023-04-09T13:22:13;36.60;66.10
60234;DHT22;49514;43.538;-5.708;2023-04-09T13:24:39;36.00;64.30
60234;DHT22;49514;43.538;-5.708;2023-04-09T13:27:06;36.30;65.30
60234;DHT22;49514;43.538;-5.708;2023-04-09T13:29:34;35.70;63.40
60234;DHT22;49514;43.538;-5.708;2023-04-09T13:32:01;36.00;64.40
60234;DHT22;49514;43.538;-5.708;2023-04-09T13:34:32;37.10;63.80
60234;DHT22;49514;43.538;-5.708;2023-04-09T13:37:00;37.00;61.00
60234;DHT22;49514;43.538;-5.708;2023-04-09T13:39:28;36.60;61.90
60234;DHT22;49514;43.538;-5.708;2023-04-09T13:41:54;36.40;60.60
60234;DHT22;49514;43.538;-5.708;2023-04-09T13:44:22;36.50;60.80
60234;DHT22;49514;43.538;-5.708;2023-04-09T13:46:48;35.60;61.50
60234;DHT22;49514;43.538;-5.708;2023-04-09T13:49:15;35.80;59.50
60234;DHT22;49514;43.538;-5.708;2023-04-09T13:51:42;34.70;59.10
60234;DHT22;49514;43.538;-5.708;2023-04-09T13:54:08;34.40;61.40
60234;DHT22;49514;43.538;-5.708;2023-04-09T13:56:36;34.20;62.00
60234;DHT22;49514;43.538;-5.708;2023-04-09T13:59:03;34.70;61.10
60234;DHT22;49514;43.538;-5.708;2023-04-09T14:01:29;35.00;61.00
60234;DHT22;49514;43.538;-5.708;2023-04-09T14:03:56;35.60;61.40
60234;DHT22;49514;43.538;-5.708;2023-04-09T14:06:22;37.00;61.60
60234;DHT22;49514;43.538;-5.708;2023-04-09T14:08:49;37.00;60.10
60234;DHT22;49514;43.538;-5.708;2023-04-09T14:11:16;36.00;59.30
60234;DHT22;49514;43.538;-5.708;2023-04-09T14:13:43;34.70;60.10
60234;DHT22;49514;43.538;-5.708;2023-04-09T14:16:09;32.70;59.90
60234;DHT22;49514;43.538;-5.708;2023-04-09T14:18:36;31.90;61.30
60234;DHT22;49514;43.538;-5.708;2023-04-09T14:21:03;31.20;62.50
60234;DHT22;49514;43.538;-5.708;2023-04-09T14:23:29;30.90;63.50
60234;DHT22;49514;43.538;-5.708;2023-04-09T14:25:56;32.40;63.70
60234;DHT22;49514;43.538;-5.708;2023-04-09T14:28:23;33.70;62.30
60234;DHT22;49514;43.538;-5.708;2023-04-09T14:30:50;34.20;61.40
60234;DHT22;49514;43.538;-5.708;2023-04-09T14:33:16;34.50;61.40
60234;DHT22;49514;43.538;-5.708;2023-04-09T14:35:43;35.10;60.00
60234;DHT22;49514;43.538;-5.708;2023-04-09T14:38:09;34.90;59.50
60234;DHT22;49514;43.538;-5.708;2023-04-09T14:40:35;35.80;59.10
60234;DHT22;49514;43.538;-5.708;2023-04-09T14:43:02;36.60;59.40
60234;DHT22;49514;43.538;-5.708;2023-04-09T14:45:29;37.30;57.70
60234;DHT22;49514;43.538;-5.708;2023-04-09T14:47:55;37.80;57.90
60234;DHT22;49514;43.538;-5.708;2023-04-09T14:50:22;37.50;57.20
60234;DHT22;49514;43.538;-5.708;2023-04-09T14:52:48;37.80;55.80
60234;DHT22;49514;43.538;-5.708;2023-04-09T14:55:15;37.50;55.30
60234;DHT22;49514;43.538;-5.708;2023-04-09T14:57:42;37.10;56.00
60234;DHT22;49514;43.538;-5.708;2023-04-09T15:00:10;37.30;55.20
60234;DHT22;49514;43.538;-5.708;2023-04-09T15:02:37;37.40;55.20
60234;DHT22;49514;43.538;-5.708;2023-04-09T15:05:04;37.30;54.20
60234;DHT22;49514;43.538;-5.708;2023-04-09T15:07:31;37.90;54.00
60234;DHT22;49514;43.538;-5.708;2023-04-09T15:09:58;36.90;53.00
60234;DHT22;49514;43.538;-5.708;2023-04-09T15:12:30;36.20;54.50
60234;DHT22;49514;43.538;-5.708;2023-04-09T15:14:58;35.20;53.90
60234;DHT22;49514;43.538;-5.708;2023-04-09T15:17:25;35.20;55.00
60234;DHT22;49514;43.538;-5.708;2023-04-09T15:19:52;35.90;55.00
60234;DHT22;49514;43.538;-5.708;2023-04-09T15:22:19;35.40;53.80
60234;DHT22;49514;43.538;-5.708;2023-04-09T15:24:46;34.50;54.40
60234;DHT22;49514;43.538;-5.708;2023-04-09T15:27:13;33.80;55.90
60234;DHT22;49514;43.538;-5.708;2023-04-09T15:29:40;34.30;56.20
60234;DHT22;49514;43.538;-5.708;2023-04-09T15:32:06;34.80;55.80
60234;DHT22;49514;43.538;-5.708;2023-04-09T15:34:33;34.90;55.50
60234;DHT22;49514;43.538;-5.708;2023-04-09T15:37:00;34.70;55.30
60234;DHT22;49514;43.538;-5.708;2023-04-09T15:39:27;35.30;55.40
60234;DHT22;49514;43.538;-5.708;2023-04-09T15:41:54;35.50;55.50
60234;DHT22;49514;43.538;-5.708;2023-04-09T15:44:24;35.70;55.20
60234;DHT22;49514;43.538;-5.708;2023-04-09T15:46:51;35.40;55.00